TimeCST,TemperatureF,Dew PointF,Humidity,Sea Level PressureIn,VisibilityMPH,Wind Direction,Wind SpeedMPH,Gust SpeedMPH,PrecipitationIn,Events,Conditions,WindDirDegrees,DateUTC
12:00 AM,72,64,68,29.76,12,ESE,9.2,,,,Scattered Clouds,120,2013-07-25 06:00:00
12:00 AM,71.6,64.4,78,29.95,6.2,ESE,9.2,-,N/A,,Scattered Clouds,120,2013-07-25 06:00:00
1:00 AM,71.6,62.6,73,29.95,6.2,ESE,9.2,-,N/A,,Scattered Clouds,120,2013-07-25 07:00:00
2:00 AM,71.6,62.6,73,29.93,6.2,East,6.9,-,N/A,,Scattered Clouds,100,2013-07-25 08:00:00
3:00 AM,72,63,66,29.77,12,East,5.8,,,,Scattered Clouds,100,2013-07-25 09:00:00
3:00 AM,71.6,62.6,73,29.95,6.2,East,5.8,-,N/A,,Scattered Clouds,100,2013-07-25 09:00:00
4:00 AM,68.0,64.4,88,29.95,6.2,ESE,5.8,-,N/A,Rain,Light Rain,120,2013-07-25 10:00:00
5:00 AM,69.8,66.2,88,29.97,6.2,NNE,8.1,-,N/A,,Mostly Cloudy,30,2013-07-25 11:00:00
6:00 AM,70,64,77,29.78,12,East,5.8,,,,Scattered Clouds,90,2013-07-25 12:00:00
6:00 AM,69.8,64.4,83,29.97,6.2,East,5.8,-,N/A,,Mostly Cloudy,90,2013-07-25 12:00:00
7:00 AM,71.6,64.4,78,29.98,6.2,East,4.6,-,N/A,,Mostly Cloudy,90,2013-07-25 13:00:00
8:00 AM,73.4,64.4,73,29.98,6.2,ESE,11.5,-,N/A,,Mostly Cloudy,110,2013-07-25 14:00:00
9:00 AM,78,64,53,29.78,12,ESE,11.5,,,,Scattered Clouds,120,2013-07-25 15:00:00
9:00 AM,78.8,64.4,61,29.98,6.2,ESE,11.5,-,N/A,,Mostly Cloudy,120,2013-07-25 15:00:00
10:00 AM,82.4,64.4,54,29.97,6.2,ESE,10.4,-,N/A,,Mostly Cloudy,120,2013-07-25 16:00:00
11:00 AM,80.6,62.6,54,29.99,6.2,ESE,8.1,-,N/A,,Mostly Cloudy,110,2013-07-25 17:00:00
11:23 AM,77.0,68.0,74,30.00,6.2,SW,6.9,-,N/A,,Mostly Cloudy,220,2013-07-25 17:23:00
12:00 PM,75.2,69.8,83,30.00,6.2,WSW,11.5,-,N/A,,Mostly Cloudy,250,2013-07-25 18:00:00
1:00 PM,73.4,69.8,88,30.00,6.2,West,8.1,-,N/A,Rain,Light Rain,270,2013-07-25 19:00:00
2:00 PM,75.2,71.6,89,30.00,6.2,West,8.1,-,N/A,,Mostly Cloudy,270,2013-07-25 20:00:00
3:00 PM,75,69,77,29.79,12,WSW,12.7,,,,Overcast,250,2013-07-25 21:00:00
3:00 PM,75.2,69.8,83,29.98,6.2,WSW,12.7,-,N/A,,Mostly Cloudy,250,2013-07-25 21:00:00
4:00 PM,73.4,68.0,83,29.98,6.2,WSW,11.5,-,N/A,Rain,Light Rain,240,2013-07-25 22:00:00
5:00 PM,71.6,69.8,94,30.01,3.1,WSW,13.8,-,N/A,Rain,Light Rain,240,2013-07-25 23:00:00
5:35 PM,71.6,69.8,94,30.01,0.9,WSW,6.9,-,N/A,,Mostly Cloudy,250,2013-07-25 23:35:00
6:00 PM,71,70,94,29.87,1,WSW,8.1,,,,Mist,250,2013-07-26 00:00:00
6:00 PM,71.6,69.8,94,30.03,0.7,WSW,8.1,-,N/A,,Mostly Cloudy,250,2013-07-26 00:00:00
7:00 PM,69.8,68.0,94,30.05,0.5,SW,4.6,-,N/A,Fog-Thunderstorm,Fog,230,2013-07-26 01:00:00
7:10 PM,69.8,69.8,100,30.06,0.9,SSW,4.6,-,N/A,Thunderstorm,Mostly Cloudy,200,2013-07-26 01:10:00
8:00 PM,69.8,69.8,100,30.05,6.2,ENE,6.9,-,N/A,,Mostly Cloudy,70,2013-07-26 02:00:00
9:00 PM,71.6,66.2,83,30.05,-9999.0,NNE,6.9,-,N/A,,Clear,30,2013-07-26 03:00:00
10:00 PM,73.4,64.4,73,30.02,-9999.0,ESE,10.4,-,N/A,,Clear,110,2013-07-26 04:00:00
11:00 PM,73.4,64.4,73,30.03,-9999.0,East,5.8,-,N/A,,Clear,100,2013-07-26 05:00:00